createdAt,value
2019-06-08T00:01:09.694Z,19.90
2019-06-08T00:03:40.988Z,16.12
2019-06-08T00:06:12.857Z,17.52
2019-06-08T00:08:44.202Z,19.82
2019-06-08T00:11:16.891Z,18.52
2019-06-08T00:13:48.753Z,18.75
2019-06-08T00:16:21.428Z,16.20
2019-06-08T00:18:52.431Z,10.63
2019-06-08T00:21:24.301Z,8.83
2019-06-08T00:23:55.783Z,10.68
2019-06-08T00:26:27.445Z,11.75
2019-06-08T00:28:58.902Z,10.82
2019-06-08T00:31:30.261Z,11.68
2019-06-08T00:34:01.895Z,10.65
2019-06-08T00:36:33.162Z,12.95
2019-06-08T00:39:05.420Z,10.82
2019-06-08T00:41:37.169Z,11.50
2019-06-08T00:44:09.135Z,10.30
2019-06-08T00:46:40.428Z,8.60
2019-06-08T00:49:11.590Z,10.00
2019-06-08T00:51:43.037Z,13.70
2019-06-08T00:54:14.641Z,14.15
2019-06-08T00:56:46.509Z,16.02
2019-06-08T01:01:49.184Z,7.33
2019-06-08T01:04:20.650Z,8.58
2019-06-08T01:06:52.524Z,7.45
2019-06-08T01:09:24.379Z,6.97
2019-06-08T01:14:26.944Z,6.65
2019-06-08T01:16:58.935Z,8.95
2019-06-08T01:22:01.534Z,8.10
2019-06-08T01:24:33.422Z,8.15
2019-06-08T01:27:05.158Z,5.17
2019-06-08T01:29:38.038Z,5.80
2019-06-08T01:32:09.579Z,7.55
2019-06-08T01:37:11.183Z,6.12
2019-06-08T01:39:42.728Z,8.60
2019-06-08T01:44:44.119Z,5.10
2019-06-08T01:47:15.669Z,5.92
2019-06-08T01:52:16.842Z,5.03
2019-06-08T01:54:48.101Z,3.83
2019-06-08T01:57:19.709Z,5.75
2019-06-08T01:59:51.482Z,4.50
2019-06-08T02:02:23.810Z,5.80
2019-06-08T02:04:55.292Z,5.70
2019-06-08T02:09:57.784Z,4.20
2019-06-08T02:18:39.807Z,4.55
2019-06-08T02:24:40.539Z,6.15
2019-06-08T02:27:11.479Z,4.65
2019-06-08T02:29:42.345Z,7.17
2019-06-08T02:32:13.415Z,5.72
2019-06-08T02:34:44.375Z,5.15
2019-06-08T02:37:15.207Z,4.17
2019-06-08T02:39:46.054Z,7.47
2019-06-08T02:42:17.000Z,5.12
2019-06-08T02:44:47.839Z,2.80
2019-06-08T02:47:18.671Z,4.40
2019-06-08T02:49:49.524Z,4.15
2019-06-08T02:52:21.066Z,3.72
2019-06-08T02:54:52.723Z,3.33
2019-06-08T02:57:25.101Z,3.45
2019-06-08T02:59:57.215Z,5.70
2019-06-08T03:02:31.605Z,3.30
2019-06-08T03:05:04.348Z,2.98
2019-06-08T03:07:39.143Z,3.25
2019-06-08T03:10:10.325Z,4.62
2019-06-08T03:12:42.435Z,3.33
2019-06-08T03:15:14.796Z,2.37
2019-06-08T03:17:45.630Z,4.10
2019-06-08T03:20:16.562Z,2.35
2019-06-08T03:22:47.385Z,3.22
2019-06-08T03:25:18.249Z,5.25
2019-06-08T03:27:49.083Z,8.23
2019-06-08T03:30:20.138Z,2.75
2019-06-08T03:32:56.511Z,4.25
2019-06-08T03:35:23.301Z,4.50
2019-06-08T03:37:54.151Z,3.80
2019-06-08T03:40:25.102Z,3.05
2019-06-08T03:42:57.543Z,2.10
2019-06-08T03:45:28.153Z,2.87
2019-06-08T03:47:58.990Z,1.87
2019-06-08T03:50:29.818Z,3.40
2019-06-08T03:53:00.653Z,2.72
2019-06-08T03:55:31.498Z,2.72
2019-06-08T03:58:02.347Z,4.42
2019-06-08T04:00:33.287Z,6.80
2019-06-08T04:03:04.137Z,2.40
2019-06-08T04:05:37.933Z,2.90
2019-06-08T04:08:09.639Z,5.78
2019-06-08T04:10:42.030Z,3.58
2019-06-08T04:13:12.669Z,2.60
2019-06-08T04:15:44.680Z,4.05
2019-06-08T04:18:15.705Z,4.40
2019-06-08T04:20:48.549Z,2.62
2019-06-08T04:23:18.753Z,2.30
2019-06-08T04:25:50.572Z,3.22
2019-06-08T04:28:21.793Z,3.15
2019-06-08T04:30:52.716Z,2.60
2019-06-08T04:33:23.571Z,2.80
2019-06-08T04:35:54.409Z,2.25
2019-06-08T04:38:25.264Z,2.72
2019-06-08T04:40:56.090Z,6.35
2019-06-08T04:43:27.159Z,3.10
2019-06-08T04:45:57.999Z,3.17
2019-06-08T04:48:28.838Z,6.20
2019-06-08T04:50:59.689Z,3.80
2019-06-08T04:53:30.543Z,3.12
2019-06-08T04:56:01.387Z,3.87
2019-06-08T04:58:32.234Z,3.75
2019-06-08T05:01:03.071Z,2.22
2019-06-08T05:03:33.918Z,3.40
2019-06-08T05:06:04.740Z,5.05
2019-06-08T05:08:35.587Z,2.00
2019-06-08T05:11:06.519Z,1.72
2019-06-08T05:13:39.041Z,4.90
2019-06-08T05:16:09.581Z,2.02
2019-06-08T05:18:41.243Z,4.20
2019-06-08T05:21:12.265Z,2.90
2019-06-08T05:23:43.396Z,4.25
2019-06-08T05:26:14.350Z,7.17
2019-06-08T05:28:45.267Z,8.33
2019-06-08T05:31:16.156Z,3.85
2019-06-08T05:33:47.568Z,3.80
2019-06-08T05:39:47.763Z,2.65
2019-06-08T05:42:18.683Z,4.65
2019-06-08T05:44:50.312Z,3.83
2019-06-08T05:47:21.349Z,3.42
2019-06-08T05:56:59.994Z,5.12
2019-06-08T06:09:55.926Z,4.60
2019-06-08T06:12:26.763Z,1.80
2019-06-08T06:14:57.730Z,4.27
2019-06-08T06:17:28.750Z,4.30
2019-06-08T06:19:59.839Z,3.42
2019-06-08T06:22:30.691Z,4.33
2019-06-08T06:25:01.633Z,2.90
2019-06-08T06:27:32.742Z,4.05
2019-06-08T06:30:03.625Z,2.98
2019-06-08T06:32:34.625Z,2.37
2019-06-08T06:35:07.098Z,3.50
2019-06-08T06:37:38.125Z,5.47
2019-06-08T06:40:10.323Z,4.33
2019-06-08T06:42:42.064Z,2.37
2019-06-08T06:45:13.750Z,3.47
2019-06-08T06:50:15.430Z,1.98
2019-06-08T06:52:46.662Z,2.33
2019-06-08T06:55:17.920Z,2.95
2019-06-08T06:57:49.273Z,5.78
2019-06-08T07:00:22.667Z,3.52
2019-06-08T07:02:53.926Z,2.92
2019-06-08T07:05:25.059Z,4.85
2019-06-08T07:07:56.187Z,3.42
2019-06-08T07:10:27.487Z,2.37
2019-06-08T07:12:58.495Z,3.37
2019-06-08T07:15:30.655Z,2.72
2019-06-08T07:18:01.714Z,4.33
2019-06-08T07:20:32.867Z,3.20
2019-06-08T07:23:03.699Z,3.77
2019-06-08T07:25:34.823Z,2.77
2019-06-08T07:28:05.681Z,4.60
2019-06-08T07:30:36.815Z,2.72
2019-06-08T07:33:08.061Z,10.85
2019-06-08T07:35:39.117Z,5.42
2019-06-08T07:38:10.273Z,3.22
2019-06-08T07:40:41.440Z,2.92
2019-06-08T07:43:12.380Z,3.92
2019-06-08T07:45:44.202Z,3.22
2019-06-08T07:48:15.452Z,3.05
2019-06-08T07:50:48.232Z,2.50
2019-06-08T07:53:18.944Z,3.22
2019-06-08T07:55:51.334Z,5.90
2019-06-08T07:58:22.505Z,2.60
2019-06-08T08:00:54.937Z,3.25
2019-06-08T08:03:26.327Z,5.80
2019-06-08T08:05:58.520Z,2.42
2019-06-08T08:08:29.827Z,3.42
2019-06-08T08:11:02.200Z,4.10
2019-06-08T08:13:33.410Z,4.75
2019-06-08T08:16:04.614Z,4.15
2019-06-08T08:18:35.640Z,4.35
2019-06-08T08:21:18.864Z,5.30
2019-06-08T08:23:39.461Z,3.95
2019-06-08T08:26:10.646Z,3.65
2019-06-08T08:28:41.747Z,3.98
2019-06-08T08:31:15.406Z,3.52
2019-06-08T08:33:48.505Z,4.25
2019-06-08T08:36:21.043Z,3.85
2019-06-08T08:38:51.848Z,2.65
2019-06-08T08:41:23.037Z,2.70
2019-06-08T08:43:54.370Z,6.53
2019-06-08T08:46:25.229Z,6.90
2019-06-08T08:49:05.976Z,4.00
2019-06-08T08:51:28.609Z,5.85
2019-06-08T08:54:04.786Z,5.67
2019-06-08T08:56:31.765Z,3.45
2019-06-08T08:59:02.861Z,5.45
2019-06-08T09:01:33.844Z,4.80
2019-06-08T09:04:05.211Z,6.57
2019-06-08T09:06:38.044Z,3.35
2019-06-08T09:12:48.654Z,4.00
2019-06-08T09:15:19.715Z,5.60
2019-06-08T09:17:52.107Z,3.77
2019-06-08T09:20:23.129Z,2.42
2019-06-08T09:26:22.178Z,5.37
2019-06-08T09:28:54.423Z,5.75
2019-06-08T09:31:28.188Z,2.90
2019-06-08T09:34:07.510Z,3.17
2019-06-08T09:36:29.729Z,7.08
2019-06-08T09:39:03.040Z,3.60
2019-06-08T09:41:32.763Z,4.67
2019-06-08T09:44:05.624Z,4.45
2019-06-08T09:46:38.365Z,4.67
2019-06-08T09:49:11.695Z,3.17
2019-06-08T09:51:40.204Z,4.83
2019-06-08T09:54:12.804Z,3.93
2019-06-08T09:56:43.443Z,3.75
2019-06-08T09:59:15.588Z,4.93
2019-06-08T10:01:46.635Z,3.60
2019-06-08T10:04:17.456Z,5.13
2019-06-08T10:06:48.327Z,4.53
2019-06-08T10:09:19.553Z,5.37
2019-06-08T10:11:50.405Z,8.20
2019-06-08T10:14:21.245Z,4.80
2019-06-08T10:16:52.122Z,3.13
2019-06-08T10:19:23.040Z,5.10
2019-06-08T10:21:54.813Z,3.75
2019-06-08T10:24:25.780Z,5.05
2019-06-08T10:26:57.188Z,5.87
2019-06-08T10:29:28.123Z,5.67
2019-06-08T10:31:59.402Z,4.00
2019-06-08T10:34:30.298Z,6.80
2019-06-08T10:37:06.428Z,8.27
2019-06-08T10:39:33.441Z,5.92
2019-06-08T10:42:05.263Z,6.37
2019-06-08T10:44:38.235Z,6.55
2019-06-08T10:47:11.533Z,5.67
2019-06-08T10:49:41.020Z,8.33
2019-06-08T10:52:12.283Z,9.30
2019-06-08T10:54:43.429Z,6.20
2019-06-08T10:57:14.281Z,5.00
2019-06-08T10:59:45.191Z,7.53
2019-06-08T11:02:18.655Z,6.50
2019-06-08T11:04:48.369Z,7.50
2019-06-08T11:07:19.346Z,5.28
2019-06-08T11:09:50.734Z,7.53
2019-06-08T11:12:21.843Z,5.60
2019-06-08T11:14:52.699Z,5.93
2019-06-08T11:17:23.511Z,6.73
2019-06-08T11:19:54.370Z,7.07
2019-06-08T11:22:27.749Z,5.33
2019-06-08T11:24:58.855Z,3.30
2019-06-08T11:27:29.568Z,5.25
2019-06-08T11:30:01.741Z,5.05
2019-06-08T11:32:32.602Z,6.65
2019-06-08T11:35:04.078Z,7.12
2019-06-08T11:37:35.008Z,6.47
2019-06-08T11:40:11.003Z,4.85
2019-06-08T11:42:40.284Z,8.23
2019-06-08T11:45:12.990Z,8.15
2019-06-08T11:47:44.143Z,12.78
2019-06-08T11:50:18.147Z,15.30
2019-06-08T11:52:49.281Z,15.68
2019-06-08T11:55:19.996Z,16.05
2019-06-08T11:57:50.886Z,11.97
2019-06-08T12:00:28.366Z,12.57
2019-06-08T12:02:58.084Z,15.18
2019-06-08T12:05:28.445Z,13.05
2019-06-08T12:07:59.282Z,14.60
2019-06-08T12:10:30.179Z,15.72
2019-06-08T12:13:01.080Z,12.05
2019-06-08T12:15:32.053Z,11.38
2019-06-08T12:18:03.432Z,15.45
2019-06-08T12:20:34.357Z,13.78
2019-06-08T12:23:05.924Z,15.25
2019-06-08T12:25:37.743Z,13.38
2019-06-08T12:28:08.429Z,17.23
2019-06-08T12:30:39.431Z,14.87
2019-06-08T12:33:12.409Z,9.03
2019-06-08T12:35:42.664Z,12.58
2019-06-08T12:38:14.280Z,10.88
2019-06-08T12:40:45.155Z,16.67
2019-06-08T12:43:18.450Z,14.00
2019-06-08T12:45:48.200Z,14.40
2019-06-08T12:48:23.473Z,14.87
2019-06-08T12:50:52.756Z,17.37
2019-06-08T12:53:24.506Z,19.52
2019-06-08T12:55:57.725Z,17.82
2019-06-08T12:58:28.360Z,14.55
2019-06-08T13:00:59.875Z,10.68
2019-06-08T13:03:31.040Z,14.10
2019-06-08T13:06:02.400Z,13.70
2019-06-08T13:08:34.041Z,21.97
2019-06-08T13:11:07.739Z,15.15
2019-06-08T13:13:38.578Z,8.13
2019-06-08T13:16:10.506Z,9.93
2019-06-08T13:21:23.054Z,10.60
2019-06-08T13:23:44.999Z,11.90
2019-06-08T13:26:21.596Z,15.65
2019-06-08T13:28:49.361Z,14.43
2019-06-08T13:31:24.139Z,13.60
2019-06-08T13:33:54.094Z,13.32
2019-06-08T13:36:27.205Z,11.18
2019-06-08T13:38:58.047Z,10.30
2019-06-08T13:41:30.060Z,15.70
2019-06-08T13:44:01.841Z,8.95
2019-06-08T13:46:33.465Z,12.35
2019-06-08T13:49:05.384Z,11.48
2019-06-08T13:51:38.421Z,11.10
2019-06-08T13:54:10.488Z,20.85
2019-06-08T13:59:13.622Z,12.43
2019-06-08T14:01:47.810Z,13.40
2019-06-08T14:04:20.696Z,9.95
2019-06-08T14:06:52.045Z,15.93
2019-06-08T14:09:24.999Z,14.13
2019-06-08T14:11:57.790Z,15.03
2019-06-08T14:14:29.467Z,17.87
2019-06-08T14:17:00.872Z,19.30
2019-06-08T14:19:32.732Z,8.05
2019-06-08T14:22:04.583Z,9.25
2019-06-08T14:24:37.760Z,8.20
2019-06-08T14:27:09.339Z,16.30
2019-06-08T14:29:40.866Z,13.72
2019-06-08T14:32:12.550Z,14.28
2019-06-08T14:34:44.309Z,12.20
2019-06-08T14:37:15.512Z,16.17
2019-06-08T14:39:48.745Z,22.47
2019-06-08T14:42:25.949Z,14.68
2019-06-08T14:44:53.190Z,12.78
2019-06-08T14:47:27.386Z,13.40
2019-06-08T14:49:58.487Z,12.63
2019-06-08T14:52:31.031Z,15.93
2019-06-08T14:55:02.795Z,16.48
2019-06-08T14:57:34.231Z,20.82
2019-06-08T15:00:09.601Z,20.17
2019-06-08T15:02:40.542Z,16.60
2019-06-08T15:05:11.722Z,16.82
2019-06-08T15:07:43.320Z,14.93
2019-06-08T15:10:18.031Z,14.85
2019-06-08T15:12:48.917Z,19.10
2019-06-08T15:15:21.602Z,20.70
2019-06-08T15:17:53.018Z,24.82
2019-06-08T15:20:24.672Z,17.93
2019-06-08T15:22:57.942Z,19.32
2019-06-08T15:25:31.130Z,15.93
2019-06-08T15:28:02.414Z,20.85
2019-06-08T15:30:33.646Z,13.90
2019-06-08T15:33:05.080Z,14.55
2019-06-08T15:35:37.724Z,17.27
2019-06-08T15:38:09.860Z,12.70
2019-06-08T15:40:41.521Z,17.40
2019-06-08T15:43:12.969Z,22.70
2019-06-08T15:45:44.642Z,15.85
2019-06-08T15:48:20.187Z,17.67
2019-06-08T15:50:49.428Z,15.00
2019-06-08T15:55:51.654Z,16.67
2019-06-08T15:58:23.419Z,13.60
2019-06-08T16:00:55.485Z,9.65
2019-06-08T16:03:27.426Z,13.32
2019-06-08T16:05:58.602Z,11.35
2019-06-08T16:08:30.248Z,14.53
2019-06-08T16:11:02.121Z,13.32
2019-06-08T16:13:33.177Z,17.65
2019-06-08T16:16:04.934Z,15.08
2019-06-08T16:18:36.378Z,10.63
2019-06-08T16:21:08.024Z,10.95
2019-06-08T16:23:39.422Z,18.35
2019-06-08T16:26:11.049Z,10.35
2019-06-08T16:28:42.263Z,9.88
2019-06-08T16:31:13.833Z,8.53
2019-06-08T16:33:45.359Z,9.88
2019-06-08T16:36:17.059Z,10.28
2019-06-08T16:38:52.097Z,9.40
2019-06-08T16:41:21.433Z,4.97
2019-06-08T16:43:52.287Z,5.70
2019-06-08T16:46:23.621Z,5.80
2019-06-08T16:48:55.236Z,11.78
2019-06-08T16:51:27.264Z,9.43
2019-06-08T16:56:30.063Z,8.80
2019-06-08T16:59:01.762Z,9.33
2019-06-08T17:01:34.744Z,9.00
2019-06-08T17:04:05.964Z,7.75
2019-06-08T17:06:37.390Z,8.33
2019-06-08T17:09:09.712Z,6.87
2019-06-08T17:11:41.041Z,6.72
2019-06-08T17:14:12.383Z,6.35
2019-06-08T17:16:44.087Z,9.23
2019-06-08T17:19:15.523Z,6.30
2019-06-08T17:21:47.295Z,8.48
2019-06-08T17:24:18.496Z,6.12
2019-06-08T17:26:50.094Z,11.13
2019-06-08T17:29:21.226Z,8.53
2019-06-08T17:31:52.464Z,9.90
2019-06-08T17:34:24.131Z,11.47
2019-06-08T17:36:55.506Z,11.57
2019-06-08T17:39:29.394Z,4.70
2019-06-08T17:41:59.850Z,13.90
2019-06-08T17:44:32.133Z,6.33
2019-06-08T17:47:03.821Z,10.85
2019-06-08T17:49:37.110Z,9.08
2019-06-08T17:52:08.621Z,4.90
2019-06-08T17:54:41.074Z,7.47
2019-06-08T17:57:12.398Z,7.62
2019-06-08T17:59:44.017Z,9.47
2019-06-08T18:02:25.432Z,8.50
2019-06-08T18:04:48.637Z,8.23
2019-06-08T18:07:19.796Z,6.33
2019-06-08T18:09:51.543Z,3.60
2019-06-08T18:12:22.555Z,3.22
2019-06-08T18:14:54.124Z,3.65
2019-06-08T18:17:27.737Z,3.75
2019-06-08T18:19:58.275Z,4.92
2019-06-08T18:22:30.344Z,4.33
2019-06-08T18:27:32.627Z,5.10
2019-06-08T18:32:37.906Z,5.30
2019-06-08T18:35:09.629Z,5.58
2019-06-08T18:37:42.266Z,6.60
2019-06-08T18:40:17.725Z,3.80
2019-06-08T18:42:48.971Z,4.05
2019-06-08T18:45:20.875Z,7.25
2019-06-08T18:47:52.642Z,5.83
2019-06-08T18:50:23.862Z,3.67
2019-06-08T18:52:57.848Z,5.33
2019-06-08T18:55:28.024Z,11.05
2019-06-08T18:57:59.569Z,6.33
2019-06-08T19:00:33.278Z,7.90
2019-06-08T19:03:06.993Z,5.72
2019-06-08T19:05:42.588Z,7.10
2019-06-08T19:08:13.997Z,7.87
2019-06-08T19:10:46.140Z,10.30
2019-06-08T19:13:18.531Z,7.97
2019-06-08T19:15:52.861Z,10.55
2019-06-08T19:18:23.267Z,5.25
2019-06-08T19:20:57.521Z,4.28
2019-06-08T19:23:28.076Z,9.03
2019-06-08T19:26:00.476Z,7.30
2019-06-08T19:28:36.341Z,12.68
2019-06-08T19:31:07.840Z,8.55
2019-06-08T19:33:38.945Z,10.72
2019-06-08T19:36:10.814Z,11.43
2019-06-08T19:38:42.721Z,8.10
2019-06-08T19:41:14.120Z,8.45
2019-06-08T19:43:48.518Z,12.37
2019-06-08T19:46:18.264Z,6.30
2019-06-08T19:48:54.301Z,9.78
2019-06-08T19:51:22.610Z,14.28
2019-06-08T19:53:54.982Z,12.43
2019-06-08T19:56:28.217Z,10.08
2019-06-08T19:59:04.652Z,12.07
2019-06-08T20:01:32.408Z,13.62
2019-06-08T20:04:04.058Z,18.65
2019-06-08T20:06:37.224Z,16.17
2019-06-08T20:09:10.509Z,18.55
2019-06-08T20:11:46.193Z,9.60
2019-06-08T20:14:14.876Z,9.55
2019-06-08T20:16:48.120Z,8.48
2019-06-08T20:19:19.213Z,13.03
2019-06-08T20:21:51.538Z,12.07
2019-06-08T20:24:22.927Z,13.62
2019-06-08T20:26:54.815Z,7.90
2019-06-08T20:29:28.285Z,19.30
2019-06-08T20:31:59.674Z,10.13
2019-06-08T20:34:31.306Z,6.30
2019-06-08T20:37:03.132Z,11.30
2019-06-08T20:39:34.386Z,6.67
2019-06-08T20:42:10.972Z,9.37
2019-06-08T20:44:38.965Z,7.53
2019-06-08T20:47:10.313Z,9.68
2019-06-08T20:49:42.484Z,10.82
2019-06-08T20:54:44.623Z,8.88
2019-06-08T20:57:17.044Z,6.83
2019-06-08T20:59:50.644Z,12.43
2019-06-08T21:02:22.213Z,5.78
2019-06-08T21:04:54.919Z,6.55
2019-06-08T21:07:27.987Z,6.12
2019-06-08T21:09:58.909Z,15.30
2019-06-08T21:12:29.728Z,8.03
2019-06-08T21:15:01.414Z,10.60
2019-06-08T21:17:33.160Z,6.80
2019-06-08T21:20:04.119Z,11.88
2019-06-08T21:22:35.111Z,10.55
2019-06-08T21:25:08.603Z,9.15
2019-06-08T21:27:40.411Z,10.98
2019-06-08T21:30:20.643Z,7.90
2019-06-08T21:32:44.649Z,7.83
2019-06-08T21:35:18.195Z,8.28
2019-06-08T21:37:52.539Z,7.25
2019-06-08T21:40:21.984Z,10.18
2019-06-08T21:42:55.260Z,7.70
2019-06-08T21:45:27.590Z,9.75
2019-06-08T21:48:00.487Z,9.93
2019-06-08T21:50:32.138Z,8.58
2019-06-08T21:53:03.639Z,15.40
2019-06-08T21:55:37.581Z,12.05
2019-06-08T21:58:08.384Z,13.03
2019-06-08T22:00:43.385Z,14.53
2019-06-08T22:03:13.428Z,8.33
2019-06-08T22:05:47.173Z,13.45
2019-06-08T22:08:17.378Z,19.05
2019-06-08T22:10:48.501Z,13.40
2019-06-08T22:13:20.083Z,9.90
2019-06-08T22:15:53.169Z,12.58
2019-06-08T22:18:27.253Z,13.00
2019-06-08T22:20:59.418Z,15.10
2019-06-08T22:23:30.323Z,11.50
2019-06-08T22:26:01.300Z,10.67
2019-06-08T22:28:32.881Z,11.95
2019-06-08T22:31:04.138Z,14.10
2019-06-08T22:33:37.547Z,10.47
2019-06-08T22:36:09.118Z,12.10
2019-06-08T22:38:40.575Z,14.05
2019-06-08T22:41:12.171Z,12.87
2019-06-08T22:43:43.423Z,14.18
2019-06-08T22:46:17.647Z,10.67
2019-06-08T22:48:47.797Z,10.68
2019-06-08T22:51:19.096Z,9.95
2019-06-08T22:53:50.668Z,9.73
2019-06-08T22:56:22.040Z,13.22
2019-06-08T22:58:55.771Z,12.43
2019-06-08T23:01:27.915Z,11.45
2019-06-08T23:04:02.272Z,11.53
2019-06-08T23:06:32.083Z,11.93
2019-06-08T23:09:04.425Z,14.18
2019-06-08T23:11:37.602Z,10.43
2019-06-08T23:14:13.096Z,7.60
2019-06-08T23:16:41.830Z,7.75
2019-06-08T23:19:12.872Z,10.60
2019-06-08T23:21:44.197Z,8.53
2019-06-08T23:24:17.946Z,7.10
2019-06-08T23:26:48.243Z,8.05
2019-06-08T23:29:19.461Z,6.87
2019-06-08T23:31:50.518Z,6.63
2019-06-08T23:34:23.319Z,5.10
2019-06-08T23:37:01.974Z,5.67
2019-06-08T23:39:28.410Z,8.03
2019-06-08T23:44:31.484Z,9.90
2019-06-08T23:47:04.128Z,9.70
2019-06-08T23:49:37.878Z,5.12
2019-06-08T23:52:10.496Z,6.30
2019-06-08T23:54:41.507Z,5.40
2019-06-08T23:59:43.011Z,5.70
